Terminal Aerodrome Forecast
Issued by NWS Pocatello, ID

Home | Current Version | Previous Version | Text Only | Print | Product List | Glossary On
Versions: 1 2 3 4 5 6 7 8 9 10 11 12 13 14 15 16 17 18 19 20 21 22 23 24 25 26
504
FTUS45 KPIH 252328
TAFBYI
TAF
KBYI 252328Z 2600/2624 27011KT P6SM SCT050
     FM260200 22009KT P6SM FEW050
     FM261700 20009KT P6SM OVC050=

USA.gov is the U.S. government's official web portal to all federal, state and local government web resources and services.